Time;durP1;ratioP1;P1;durP2;ratioP2;P2;SDS_P1;SDS_P2;PMS_P1;PMS_P2;Temp;Humidity;BMP_temperature;BMP_pressure;BME280_temperature;BME280_humidity;BME280_pressure;Samples;Min_cycle;Max_cycle;Signal;HPM_P1;HPM_P2
2022/05/19 00:01:04;;;;;;;26.60;16.45;;;27.60;99.90;;;;;;4129808;28;20112;-65
2022/05/19 00:03:09;;;;;;;20.38;13.10;;;27.60;99.90;;;;;;4146214;28;20042;-65
2022/05/19 00:05:16;;;;;;;12.15;8.38;;;27.60;99.90;;;;;;4147060;28;20428;-66
2022/05/19 00:07:22;;;;;;;7.22;6.15;;;27.60;99.90;;;;;;4146797;28;20042;-65
2022/05/19 00:09:27;;;;;;;6.60;5.38;;;27.50;99.90;;;;;;4147416;28;20069;-65
2022/05/19 00:11:32;;;;;;;6.75;5.47;;;27.50;99.90;;;;;;4147357;28;20124;-66
2022/05/19 00:13:37;;;;;;;5.82;5.22;;;27.50;99.90;;;;;;4146971;28;20049;-65
2022/05/19 00:15:41;;;;;;;7.53;6.05;;;27.50;99.90;;;;;;4152733;28;20599;-65
2022/05/19 00:17:46;;;;;;;10.27;6.10;;;27.50;99.90;;;;;;4146126;28;20049;-66
2022/05/19 00:19:52;;;;;;;8.63;6.05;;;27.50;99.90;;;;;;4146519;28;20045;-66
2022/05/19 00:21:57;;;;;;;6.53;5.78;;;27.50;99.90;;;;;;4146996;28;20650;-66
2022/05/19 00:24:03;;;;;;;6.38;5.43;;;27.50;99.90;;;;;;4147125;28;20061;-66
2022/05/19 00:26:07;;;;;;;7.30;5.50;;;27.50;99.90;;;;;;4158255;28;20048;-65
2022/05/19 00:28:12;;;;;;;7.60;5.07;;;27.50;99.90;;;;;;4145686;28;20491;-66
2022/05/19 00:30:19;;;;;;;5.32;4.72;;;27.50;99.90;;;;;;4146015;28;20042;-66
2022/05/19 00:32:23;;;;;;;4.95;4.53;;;27.50;99.90;;;;;;4146459;28;20085;-65
2022/05/19 00:34:28;;;;;;;7.22;4.72;;;27.50;99.90;;;;;;4146424;28;20044;-66
2022/05/19 00:36:32;;;;;;;5.32;4.70;;;27.50;99.90;;;;;;4147290;28;20124;-66
2022/05/19 00:38:38;;;;;;;5.07;4.43;;;27.60;99.90;;;;;;4147185;28;20416;-66
2022/05/19 00:40:51;;;;;;;8.30;4.55;;;27.60;99.90;;;;;;4146167;28;20081;-65
2022/05/19 00:42:56;;;;;;;5.45;4.88;;;27.70;99.90;;;;;;4137782;28;20061;-66
2022/05/19 00:45:01;;;;;;;7.22;5.07;;;27.70;99.90;;;;;;4145229;28;20675;-64
2022/05/19 00:47:05;;;;;;;5.40;4.75;;;27.70;99.90;;;;;;4129436;28;20046;-65
2022/05/19 00:49:25;;;;;;;5.72;4.55;;;27.80;99.90;;;;;;4138559;28;20041;-65
2022/05/19 00:51:54;;;;;;;8.43;4.93;;;27.80;99.90;;;;;;4161308;28;20140;-65
2022/05/19 00:53:58;;;;;;;5.68;4.53;;;27.90;99.90;;;;;;4147459;28;20459;-65
2022/05/19 00:56:06;;;;;;;5.85;4.82;;;27.90;99.90;;;;;;4149505;28;20053;-65
2022/05/19 00:58:38;;;;;;;7.25;4.75;;;27.90;99.90;;;;;;4149022;28;20053;-65
2022/05/19 01:00:45;;;;;;;8.05;5.28;;;28.00;99.90;;;;;;4154530;28;20128;-65
2022/05/19 01:02:52;;;;;;;8.38;5.07;;;28.00;99.90;;;;;;4148099;28;20095;-65
2022/05/19 01:05:11;;;;;;;6.72;4.63;;;28.10;99.90;;;;;;4136444;28;20598;-65
2022/05/19 01:07:17;;;;;;;5.20;4.70;;;28.20;99.90;;;;;;4136873;28;20049;-65
2022/05/19 01:09:22;;;;;;;7.20;4.85;;;28.20;99.90;;;;;;4139042;28;20095;-65
2022/05/19 01:11:38;;;;;;;6.25;4.43;;;28.20;99.90;;;;;;4153654;28;20049;-65
2022/05/19 01:13:43;;;;;;;5.93;4.53;;;28.30;99.90;;;;;;4154114;28;20778;-65
2022/05/19 01:15:53;;;;;;;5.45;4.78;;;28.30;99.90;;;;;;4138591;28;20058;-66
2022/05/19 01:18:01;;;;;;;6.65;4.75;;;28.30;99.90;;;;;;4140785;28;20456;-66
2022/05/19 01:20:16;;;;;;;6.05;5.35;;;28.30;99.90;;;;;;4148661;28;20085;-66
2022/05/19 01:22:46;;;;;;;8.93;5.20;;;28.30;99.90;;;;;;4139897;28;20503;-66
2022/05/19 01:25:28;;;;;;;8.15;5.10;;;28.30;99.90;;;;;;4140471;28;20144;-66
2022/05/19 01:27:33;;;;;;;6.85;5.25;;;28.30;99.90;;;;;;4145648;28;20084;-66
2022/05/19 01:29:38;;;;;;;6.63;5.20;;;28.30;99.90;;;;;;4143152;28;20184;-66
2022/05/19 01:31:48;;;;;;;7.68;5.47;;;28.30;99.90;;;;;;4153143;28;20045;-66
2022/05/19 01:33:53;;;;;;;6.53;4.78;;;28.40;99.90;;;;;;4150533;28;20045;-66
2022/05/19 01:35:57;;;;;;;7.10;5.20;;;28.40;99.90;;;;;;4140243;28;20061;-65
2022/05/19 01:38:03;;;;;;;6.32;5.20;;;28.20;99.90;;;;;;4146262;28;20464;-65
2022/05/19 01:40:30;;;;;;;6.88;5.20;;;28.10;99.90;;;;;;4139292;28;20176;-66
2022/05/19 01:42:59;;;;;;;7.35;5.03;;;28.20;99.90;;;;;;4166495;28;20091;-65
2022/05/19 01:45:18;;;;;;;5.35;4.40;;;28.30;99.90;;;;;;4133463;28;20054;-66
2022/05/19 01:47:29;;;;;;;4.85;4.20;;;28.50;99.90;;;;;;4153522;28;20452;-66
2022/05/19 01:49:49;;;;;;;4.72;4.32;;;28.60;99.90;;;;;;4153532;28;20115;-66
2022/05/19 01:52:02;;;;;;;7.25;5.05;;;28.60;99.90;;;;;;4147588;28;20049;-66
2022/05/19 01:54:15;;;;;;;5.68;5.00;;;28.70;99.90;;;;;;4148765;28;20053;-66
2022/05/19 01:56:31;;;;;;;9.35;8.43;;;28.80;99.90;;;;;;4146324;28;20052;-66
2022/05/19 01:59:06;;;;;;;13.20;9.90;;;28.90;99.90;;;;;;4156804;28;20111;-66
2022/05/19 02:01:10;;;;;;;7.30;6.60;;;28.90;99.90;;;;;;4148819;28;20512;-67
2022/05/19 02:03:39;;;;;;;6.80;5.38;;;29.10;99.90;;;;;;4144388;28;20516;-66
2022/05/19 02:05:44;;;;;;;8.00;5.30;;;29.20;99.90;;;;;;4148645;28;20571;-66
2022/05/19 02:07:50;;;;;;;7.35;4.70;;;29.30;99.90;;;;;;4141262;28;20050;-66
2022/05/19 02:09:59;;;;;;;5.05;4.10;;;29.30;99.90;;;;;;4142235;28;20137;-66
2022/05/19 02:12:05;;;;;;;5.55;4.93;;;29.30;99.90;;;;;;4142908;28;20133;-66
2022/05/19 02:14:31;;;;;;;6.47;4.75;;;29.40;99.90;;;;;;4149183;28;20045;-66
2022/05/19 02:16:35;;;;;;;6.05;4.88;;;29.60;99.90;;;;;;4160367;28;20044;-66
2022/05/19 02:18:40;;;;;;;9.85;4.40;;;29.70;99.90;;;;;;4146114;28;20140;-66
2022/05/19 02:20:46;;;;;;;9.75;6.80;;;29.80;99.90;;;;;;4141054;28;20102;-66
2022/05/19 02:22:50;;;;;;;8.15;5.80;;;29.80;99.90;;;;;;4149337;28;20055;-66
2022/05/19 02:25:03;;;;;;;6.40;4.63;;;29.80;99.90;;;;;;4148644;28;20057;-65
2022/05/19 02:27:32;;;;;;;5.07;4.30;;;29.90;99.90;;;;;;4148384;28;20425;-66
2022/05/19 02:29:39;;;;;;;8.07;5.50;;;30.00;99.90;;;;;;4148005;28;20077;-65
2022/05/19 02:31:44;;;;;;;5.45;3.67;;;30.20;99.90;;;;;;4148146;28;20468;-66
2022/05/19 02:33:49;;;;;;;5.25;3.72;;;30.30;99.90;;;;;;4147027;28;20128;-66
2022/05/19 02:35:54;;;;;;;4.32;3.30;;;30.40;99.90;;;;;;4114663;28;20536;-66
2022/05/19 02:38:00;;;;;;;4.88;3.50;;;30.50;99.90;;;;;;4146186;28;20042;-66
2022/05/19 02:40:06;;;;;;;4.43;3.40;;;30.50;99.90;;;;;;4149129;28;20049;-66
2022/05/19 02:42:11;;;;;;;3.88;3.35;;;30.50;99.90;;;;;;4143865;28;20096;-66
2022/05/19 02:44:16;;;;;;;4.15;3.28;;;30.40;99.90;;;;;;4145187;28;20042;-66
2022/05/19 02:46:21;;;;;;;4.75;3.53;;;30.50;99.90;;;;;;4144399;28;20129;-66
2022/05/19 02:48:25;;;;;;;5.28;4.00;;;30.60;99.90;;;;;;4148448;28;20516;-66
2022/05/19 02:50:32;;;;;;;5.88;4.00;;;30.40;99.90;;;;;;4147770;28;20057;-67
2022/05/19 02:52:39;;;;;;;4.00;3.50;;;30.40;99.90;;;;;;4148249;28;20050;-65
2022/05/19 02:54:43;;;;;;;6.30;4.20;;;30.40;99.90;;;;;;4147389;28;20551;-65
2022/05/19 02:56:49;;;;;;;3.92;3.35;;;30.50;99.90;;;;;;4144332;28;20057;-65
2022/05/19 02:58:53;;;;;;;4.30;3.35;;;30.60;99.90;;;;;;4146059;28;20046;-65
2022/05/19 03:00:58;;;;;;;4.95;3.63;;;30.60;99.90;;;;;;4148019;28;20050;-65
2022/05/19 03:03:05;;;;;;;5.32;3.88;;;30.40;99.90;;;;;;4147282;28;20056;-64
2022/05/19 03:05:14;;;;;;;7.03;4.28;;;30.40;99.90;;;;;;4146550;28;20053;-65
2022/05/19 03:07:20;;;;;;;6.22;4.38;;;30.30;99.90;;;;;;4147105;28;20057;-65
2022/05/19 03:09:24;;;;;;;4.65;4.10;;;30.30;99.90;;;;;;4136387;28;20047;-65
2022/05/19 03:11:29;;;;;;;7.85;4.75;;;30.30;99.90;;;;;;4139542;28;20045;-65
2022/05/19 03:13:34;;;;;;;6.88;3.83;;;30.40;99.90;;;;;;4142418;28;20073;-65
2022/05/19 03:15:40;;;;;;;5.57;3.95;;;30.40;99.90;;;;;;4142458;28;20064;-66
2022/05/19 03:17:46;;;;;;;4.90;3.63;;;30.50;99.90;;;;;;4138549;28;20038;-65
2022/05/19 03:19:54;;;;;;;4.05;3.10;;;30.60;99.90;;;;;;4142731;28;20060;-66
2022/05/19 03:22:04;;;;;;;5.47;3.22;;;30.60;99.90;;;;;;4138817;28;20073;-66
2022/05/19 03:24:12;;;;;;;4.18;2.70;;;30.80;99.90;;;;;;4141989;28;20141;-66
2022/05/19 03:26:17;;;;;;;4.00;3.03;;;30.90;99.90;;;;;;4142420;28;20038;-65
2022/05/19 03:28:23;;;;;;;4.00;2.75;;;31.00;99.90;;;;;;4140732;28;20052;-65
2022/05/19 03:30:30;;;;;;;4.47;3.05;;;31.10;99.90;;;;;;4141847;28;20080;-65
2022/05/19 03:32:35;;;;;;;3.70;2.78;;;31.20;99.90;;;;;;4103864;28;20059;-65
2022/05/19 03:34:40;;;;;;;4.05;3.25;;;31.40;99.90;;;;;;4141773;28;20473;-65
2022/05/19 03:36:49;;;;;;;4.15;3.15;;;31.50;99.90;;;;;;4140027;28;20396;-64
2022/05/19 03:38:53;;;;;;;4.57;2.90;;;31.60;99.90;;;;;;4155537;28;20456;-65
2022/05/19 03:41:00;;;;;;;3.15;2.63;;;31.60;99.70;;;;;;4140423;28;20137;-65
2022/05/19 03:43:04;;;;;;;3.67;2.50;;;31.70;99.60;;;;;;4153123;28;20103;-64
2022/05/19 03:45:18;;;;;;;4.70;2.50;;;31.70;99.30;;;;;;4147749;28;20046;-65
2022/05/19 03:47:22;;;;;;;3.30;2.42;;;31.70;99.70;;;;;;4149239;28;20084;-65
2022/05/19 03:49:27;;;;;;;2.63;2.33;;;31.80;99.10;;;;;;4149047;28;20591;-65
2022/05/19 03:51:32;;;;;;;2.92;2.35;;;31.70;99.10;;;;;;4125375;28;20039;-65
2022/05/19 03:53:38;;;;;;;3.72;2.17;;;31.60;99.40;;;;;;4147391;28;20042;-65
2022/05/19 03:55:45;;;;;;;2.65;2.15;;;31.50;99.30;;;;;;4141355;28;20046;-64
2022/05/19 03:57:52;;;;;;;2.55;2.17;;;31.60;99.30;;;;;;4139912;28;20045;-65
2022/05/19 03:59:56;;;;;;;2.28;2.08;;;31.70;99.30;;;;;;4141754;28;20558;-65
2022/05/19 04:02:03;;;;;;;3.40;3.05;;;31.70;99.00;;;;;;4143663;28;20046;-65
2022/05/19 04:04:28;;;;;;;3.05;2.50;;;32.00;98.50;;;;;;4141008;28;20037;-65
2022/05/19 04:06:34;;;;;;;3.78;2.70;;;32.30;98.90;;;;;;4140789;28;20042;-66
2022/05/19 04:08:40;;;;;;;4.65;2.50;;;32.50;98.60;;;;;;4140291;28;20095;-65
2022/05/19 04:10:47;;;;;;;4.85;2.72;;;32.30;98.40;;;;;;4141173;28;20050;-65
2022/05/19 04:12:53;;;;;;;4.10;2.40;;;32.30;98.30;;;;;;4134178;28;20053;-66
2022/05/19 04:14:57;;;;;;;2.78;2.35;;;32.40;98.10;;;;;;4141152;28;20060;-65
2022/05/19 04:17:02;;;;;;;4.88;2.40;;;32.30;98.20;;;;;;4141128;28;20052;-64
2022/05/19 04:19:07;;;;;;;7.30;2.42;;;32.20;98.30;;;;;;4140260;28;20076;-65
2022/05/19 04:21:12;;;;;;;3.45;2.00;;;32.10;98.20;;;;;;4141427;28;20051;-64
2022/05/19 04:23:17;;;;;;;5.05;2.28;;;32.00;98.30;;;;;;4140678;28;20753;-65
2022/05/19 04:25:23;;;;;;;2.95;2.00;;;31.80;98.40;;;;;;4138154;28;20054;-65
2022/05/19 04:27:30;;;;;;;2.40;1.70;;;31.70;98.10;;;;;;4140927;28;20038;-66
2022/05/19 04:29:35;;;;;;;2.15;1.67;;;31.40;98.50;;;;;;4145723;28;20444;-65
2022/05/19 04:31:39;;;;;;;3.88;1.65;;;31.10;98.70;;;;;;4141945;28;20042;-65
2022/05/19 04:33:44;;;;;;;2.78;1.50;;;30.80;98.80;;;;;;4139063;28;20042;-66
2022/05/19 04:35:49;;;;;;;3.28;1.80;;;30.70;99.10;;;;;;4139819;28;20116;-66
2022/05/19 04:38:00;;;;;;;3.22;1.77;;;30.50;99.50;;;;;;4139485;28;20049;-65
2022/05/19 04:40:06;;;;;;;3.40;1.95;;;30.20;99.90;;;;;;4134859;28;20096;-66
2022/05/19 04:42:12;;;;;;;2.25;1.33;;;29.80;99.90;;;;;;4140161;28;20591;-66
2022/05/19 04:44:20;;;;;;;3.83;1.27;;;29.80;99.90;;;;;;4140263;28;20046;-65
2022/05/19 04:46:25;;;;;;;2.65;1.40;;;29.70;99.90;;;;;;4141501;28;20046;-66
2022/05/19 04:48:30;;;;;;;4.32;1.40;;;29.40;99.90;;;;;;4139819;28;20042;-66
2022/05/19 04:50:35;;;;;;;2.65;1.75;;;29.40;99.90;;;;;;4139928;28;20480;-65
2022/05/19 04:52:40;;;;;;;4.53;2.08;;;29.30;99.90;;;;;;4140789;28;20759;-65
2022/05/19 04:54:45;;;;;;;8.18;2.60;;;29.20;99.90;;;;;;4143753;28;20034;-65
2022/05/19 04:56:51;;;;;;;7.82;3.05;;;29.20;99.90;;;;;;4141006;28;20428;-65
2022/05/19 04:58:55;;;;;;;7.47;3.22;;;29.20;99.90;;;;;;4141986;28;20397;-65
2022/05/19 05:00:59;;;;;;;6.03;3.05;;;29.20;99.90;;;;;;4140064;28;20061;-65
2022/05/19 05:03:08;;;;;;;5.03;2.80;;;29.10;99.90;;;;;;4132539;28;20100;-66
2022/05/19 05:05:12;;;;;;;4.88;2.47;;;29.20;99.90;;;;;;4140438;28;20448;-64
2022/05/19 05:07:17;;;;;;;3.85;2.20;;;29.20;99.90;;;;;;4140595;28;20095;-65
2022/05/19 05:09:21;;;;;;;4.20;1.80;;;29.20;99.90;;;;;;4144184;28;20061;-65
2022/05/19 05:11:27;;;;;;;3.97;2.42;;;28.90;99.90;;;;;;4141009;28;20045;-64
2022/05/19 05:13:32;;;;;;;4.72;2.90;;;29.00;99.90;;;;;;4140390;28;20034;-65
2022/05/19 05:15:38;;;;;;;3.53;2.63;;;29.00;99.90;;;;;;4143140;28;20046;-64
2022/05/19 05:17:42;;;;;;;2.70;2.03;;;29.10;99.90;;;;;;4138944;28;20144;-65
2022/05/19 05:19:48;;;;;;;2.85;1.80;;;29.10;99.90;;;;;;4138856;28;20490;-64
2022/05/19 05:21:55;;;;;;;4.25;1.92;;;29.10;99.90;;;;;;4140796;28;20072;-64
2022/05/19 05:24:02;;;;;;;2.53;1.80;;;29.10;99.90;;;;;;4140878;28;20050;-64
2022/05/19 05:26:06;;;;;;;3.20;1.90;;;29.20;99.90;;;;;;4140795;28;20053;-65
2022/05/19 05:28:11;;;;;;;3.00;2.05;;;29.20;99.90;;;;;;4133855;28;20447;-64
2022/05/19 05:30:16;;;;;;;3.30;1.65;;;29.20;99.90;;;;;;4135190;28;20119;-65
2022/05/19 05:32:21;;;;;;;2.95;1.70;;;29.20;99.90;;;;;;4140842;28;20466;-64
2022/05/19 05:34:25;;;;;;;3.22;2.17;;;29.20;99.90;;;;;;4133510;28;20050;-65
2022/05/19 05:36:30;;;;;;;3.05;1.90;;;29.20;99.90;;;;;;4140855;28;20120;-66
2022/05/19 05:38:35;;;;;;;3.22;1.90;;;29.20;99.90;;;;;;4138602;28;20054;-65
2022/05/19 05:40:42;;;;;;;2.65;1.65;;;29.20;99.90;;;;;;4142665;28;20037;-65
2022/05/19 05:42:46;;;;;;;3.30;2.03;;;29.20;99.90;;;;;;4139345;28;20045;-66
2022/05/19 05:44:54;;;;;;;6.35;2.88;;;29.20;99.90;;;;;;4141396;28;20050;-66
2022/05/19 05:47:05;;;;;;;9.10;2.72;;;29.30;99.90;;;;;;4139212;28;20046;-64
2022/05/19 05:49:18;;;;;;;6.97;2.88;;;29.10;99.90;;;;;;4139991;28;20045;-66
2022/05/19 05:51:23;;;;;;;10.00;3.00;;;29.00;99.90;;;;;;4133221;28;20057;-65
2022/05/19 05:53:28;;;;;;;9.75;2.97;;;28.80;99.90;;;;;;4140222;28;20042;-66
2022/05/19 05:55:33;;;;;;;8.27;2.85;;;28.90;99.90;;;;;;4134059;28;20129;-66
2022/05/19 05:57:38;;;;;;;7.25;2.40;;;28.90;99.90;;;;;;4139705;28;20120;-67
2022/05/19 05:59:42;;;;;;;5.38;2.53;;;28.90;99.90;;;;;;4138480;28;20050;-66
2022/05/19 06:01:51;;;;;;;4.93;1.92;;;28.70;99.90;;;;;;4140529;28;20085;-65
2022/05/19 06:03:56;;;;;;;7.40;2.00;;;28.80;99.90;;;;;;4138959;28;20073;-65
2022/05/19 06:06:02;;;;;;;6.75;2.03;;;28.70;99.90;;;;;;4139643;28;20516;-65
2022/05/19 06:08:06;;;;;;;6.95;2.08;;;28.60;99.90;;;;;;4138298;28;20526;-65
2022/05/19 06:10:11;;;;;;;4.18;1.80;;;28.60;99.90;;;;;;4140039;28;20060;-64
2022/05/19 06:12:15;;;;;;;5.10;1.67;;;28.60;99.90;;;;;;4138871;28;20046;-65
2022/05/19 06:14:25;;;;;;;7.05;2.05;;;28.50;99.90;;;;;;4139736;28;20167;-65
2022/05/19 06:16:29;;;;;;;6.43;2.03;;;28.50;99.90;;;;;;4140352;28;20054;-65
2022/05/19 06:18:36;;;;;;;4.65;1.60;;;28.50;99.90;;;;;;4139812;28;20196;-65
2022/05/19 06:20:41;;;;;;;3.17;1.23;;;28.40;99.90;;;;;;4139677;28;20046;-65
2022/05/19 06:22:46;;;;;;;2.85;1.30;;;28.40;99.90;;;;;;4122817;28;20915;-64
2022/05/19 06:24:50;;;;;;;4.65;1.63;;;28.40;99.90;;;;;;4140396;28;20085;-65
2022/05/19 06:26:55;;;;;;;1.98;1.33;;;28.40;99.90;;;;;;4140677;28;20052;-65
2022/05/19 06:29:00;;;;;;;3.97;1.40;;;28.40;99.90;;;;;;4139806;28;20073;-65
2022/05/19 06:31:07;;;;;;;2.33;1.25;;;28.40;99.90;;;;;;4140837;28;20105;-65
2022/05/19 06:33:12;;;;;;;4.30;1.50;;;28.40;99.90;;;;;;4140009;28;20048;-65
2022/05/19 06:35:19;;;;;;;3.25;1.80;;;28.40;99.90;;;;;;4141745;28;20061;-65
2022/05/19 06:37:24;;;;;;;3.33;1.33;;;28.40;99.90;;;;;;4139075;28;20053;-65
2022/05/19 06:39:29;;;;;;;2.67;1.38;;;28.40;99.90;;;;;;4137957;28;20141;-64
2022/05/19 06:43:51;;;;;;;1.48;0.82;;;28.50;99.90;;;;;;4141993;28;20064;-64
2022/05/19 06:45:55;;;;;;;1.88;1.10;;;28.70;99.90;;;;;;4149928;28;20400;-64
2022/05/19 06:48:01;;;;;;;1.63;0.65;;;28.90;99.90;;;;;;4145179;28;20046;-64
2022/05/19 06:50:11;;;;;;;3.10;0.85;;;28.80;99.90;;;;;;4143774;28;20041;-64
2022/05/19 06:52:22;;;;;;;2.38;0.90;;;29.10;99.90;;;;;;4141323;28;20974;-63
2022/05/19 06:54:27;;;;;;;21.63;2.00;;;29.20;99.90;;;;;;4141926;28;20053;-64
2022/05/19 06:56:36;;;;;;;2.70;1.08;;;29.50;99.90;;;;;;4142101;28;20042;-64
2022/05/19 06:58:41;;;;;;;1.85;1.15;;;29.80;99.90;;;;;;4142335;28;20559;-64
2022/05/19 07:00:46;;;;;;;1.88;1.35;;;29.90;99.90;;;;;;4142737;28;20057;-64
2022/05/19 07:02:53;;;;;;;2.35;1.40;;;29.90;99.90;;;;;;4141718;28;20404;-64
2022/05/19 07:04:59;;;;;;;4.13;1.25;;;29.80;99.90;;;;;;4151668;28;20152;-64
2022/05/19 07:07:07;;;;;;;2.00;1.10;;;29.80;99.90;;;;;;4141247;28;20488;-64
2022/05/19 07:09:12;;;;;;;6.15;1.60;;;29.70;99.90;;;;;;4140937;28;20077;-65
2022/05/19 07:13:33;;;;;;;1.77;1.20;;;29.60;99.90;;;;;;4142402;28;20077;-65
2022/05/19 07:15:38;;;;;;;1.67;0.93;;;29.50;99.90;;;;;;4141118;28;20045;-65
2022/05/19 07:17:43;;;;;;;1.88;0.80;;;29.70;99.90;;;;;;4142146;28;21064;-65
2022/05/19 07:22:16;;;;;;;1.75;0.82;;;30.00;99.90;;;;;;4142200;28;20053;-64
2022/05/19 07:24:25;;;;;;;1.23;0.80;;;30.10;99.90;;;;;;4143170;28;20528;-65
2022/05/19 07:26:30;;;;;;;1.42;0.65;;;30.20;99.90;;;;;;4142330;28;20062;-65
2022/05/19 07:28:35;;;;;;;0.88;0.60;;;30.10;99.90;;;;;;4140479;28;20069;-64
2022/05/19 07:30:40;;;;;;;1.98;0.90;;;30.10;99.90;;;;;;4142123;28;20057;-64
2022/05/19 07:32:47;;;;;;;1.88;0.80;;;30.10;99.90;;;;;;4148680;28;20444;-63
2022/05/19 07:34:52;;;;;;;0.90;0.60;;;30.10;99.90;;;;;;4155621;28;20051;-64
2022/05/19 07:36:57;;;;;;;0.77;0.60;;;30.30;99.90;;;;;;4141652;28;20456;-64
2022/05/19 07:39:01;;;;;;;1.10;0.70;;;30.50;99.90;;;;;;4141961;28;20078;-64
2022/05/19 07:41:06;;;;;;;1.02;0.77;;;30.60;99.90;;;;;;4146304;28;20064;-66
2022/05/19 07:45:50;;;;;;;1.55;1.10;;;30.50;99.90;;;;;;4141554;28;20068;-65
2022/05/19 07:47:55;;;;;;;0.93;0.60;;;30.50;99.90;;;;;;4141314;28;20076;-64
2022/05/19 07:50:00;;;;;;;0.90;0.60;;;30.10;99.90;;;;;;4140761;28;20096;-64
2022/05/19 07:52:10;;;;;;;1.60;0.82;;;30.00;99.90;;;;;;4133152;28;20049;-64
2022/05/19 07:54:18;;;;;;;1.08;0.68;;;30.10;99.90;;;;;;4140326;28;20424;-65
2022/05/19 07:56:23;;;;;;;2.67;0.90;;;29.90;99.90;;;;;;4124521;28;20354;-64
2022/05/19 07:58:32;;;;;;;3.25;0.85;;;30.00;99.90;;;;;;4141290;28;20041;-64
2022/05/19 08:00:40;;;;;;;2.40;0.80;;;30.10;99.90;;;;;;4141821;28;20050;-64
2022/05/19 08:02:50;;;;;;;1.10;0.80;;;30.20;99.90;;;;;;4150521;28;20049;-65
2022/05/19 08:04:56;;;;;;;1.60;0.73;;;30.20;99.90;;;;;;4134729;28;20133;-64
2022/05/19 08:07:03;;;;;;;1.13;0.90;;;30.20;99.90;;;;;;4140863;28;20107;-64
2022/05/19 08:11:25;;;;;;;2.65;1.15;;;30.10;99.90;;;;;;4141715;28;20045;-64
2022/05/19 08:15:47;;;;;;;1.08;0.98;;;30.00;99.90;;;;;;4142132;28;20104;-65
2022/05/19 08:17:52;;;;;;;2.65;1.33;;;30.10;99.90;;;;;;4140671;28;20141;-64
2022/05/19 08:19:56;;;;;;;1.58;0.93;;;30.00;99.90;;;;;;4141375;28;20575;-65
2022/05/19 08:22:01;;;;;;;1.65;1.08;;;30.10;99.90;;;;;;4131447;28;20497;-65
2022/05/19 08:24:07;;;;;;;1.33;0.90;;;30.00;99.90;;;;;;4133758;28;20149;-65
2022/05/19 08:26:14;;;;;;;2.25;1.50;;;30.10;99.90;;;;;;4139537;28;20084;-65
2022/05/19 08:28:21;;;;;;;1.58;1.20;;;30.00;99.90;;;;;;4136585;28;20080;-65
2022/05/19 08:30:27;;;;;;;2.45;1.20;;;30.00;99.90;;;;;;4139929;28;20062;-65
2022/05/19 08:32:32;;;;;;;2.63;1.58;;;30.00;99.90;;;;;;4138930;28;20050;-64
2022/05/19 08:34:37;;;;;;;3.47;1.40;;;30.00;99.90;;;;;;4151121;28;20053;-64
2022/05/19 08:36:52;;;;;;;2.13;1.33;;;30.10;99.90;;;;;;4141075;28;20108;-64
2022/05/19 08:38:57;;;;;;;2.42;1.50;;;30.10;99.90;;;;;;4140903;28;20054;-64
2022/05/19 08:41:18;;;;;;;3.88;1.73;;;30.10;99.90;;;;;;4123515;28;20088;-64
2022/05/19 08:43:25;;;;;;;3.05;1.60;;;30.00;99.90;;;;;;4142048;28;20877;-64
2022/05/19 08:45:39;;;;;;;2.83;1.60;;;29.80;99.90;;;;;;4143314;28;20547;-64
2022/05/19 08:48:05;;;;;;;2.97;1.77;;;29.80;99.90;;;;;;4139020;28;20104;-64
2022/05/19 08:50:41;;;;;;;2.50;1.70;;;29.80;99.90;;;;;;4138702;28;20048;-64
2022/05/19 08:52:47;;;;;;;3.40;2.10;;;29.80;99.90;;;;;;4138666;28;20050;-64
2022/05/19 08:54:54;;;;;;;4.10;2.15;;;29.70;99.90;;;;;;4140171;28;20433;-65
2022/05/19 08:57:13;;;;;;;3.45;1.98;;;29.80;99.90;;;;;;4141910;28;20576;-65
2022/05/19 08:59:33;;;;;;;2.80;2.00;;;29.80;99.90;;;;;;4147914;28;20505;-65
2022/05/19 09:01:56;;;;;;;3.20;2.00;;;29.80;99.90;;;;;;4132151;28;20047;-64
2022/05/19 09:04:20;;;;;;;5.82;2.42;;;29.80;99.90;;;;;;4152276;28;20194;-65
2022/05/19 09:09:32;;;;;;;4.85;2.10;;;29.70;99.90;;;;;;4137213;28;20050;-64
2022/05/19 09:11:51;;;;;;;5.22;2.10;;;29.70;99.90;;;;;;4144365;28;20049;-65
2022/05/19 09:14:16;;;;;;;3.95;2.08;;;29.70;99.90;;;;;;4150781;28;20064;-64
2022/05/19 09:16:31;;;;;;;5.00;1.85;;;29.70;99.90;;;;;;4125804;28;20073;-64
2022/05/19 09:18:38;;;;;;;3.63;2.08;;;29.60;99.90;;;;;;4142704;28;20084;-64
2022/05/19 09:20:54;;;;;;;3.83;2.40;;;29.60;99.90;;;;;;4140474;28;20046;-65
2022/05/19 09:23:04;;;;;;;3.97;2.00;;;29.60;99.90;;;;;;4142518;28;20049;-65
2022/05/19 09:25:10;;;;;;;2.38;2.00;;;29.50;99.90;;;;;;4139743;28;20108;-65
2022/05/19 09:27:16;;;;;;;6.28;2.45;;;29.50;99.90;;;;;;4139811;28;20535;-65
2022/05/19 09:29:33;;;;;;;3.38;1.80;;;29.50;99.90;;;;;;4139871;28;20520;-66
2022/05/19 09:31:46;;;;;;;3.97;2.20;;;29.50;99.90;;;;;;4140206;28;20046;-66
2022/05/19 09:33:51;;;;;;;4.25;3.60;;;29.30;99.90;;;;;;4138243;28;20065;-65
2022/05/19 09:35:58;;;;;;;5.78;3.55;;;29.40;99.90;;;;;;4152716;28;20123;-65
2022/05/19 09:38:24;;;;;;;5.80;3.47;;;29.40;99.90;;;;;;4138007;28;20674;-65
2022/05/19 09:40:30;;;;;;;8.35;3.75;;;29.40;99.90;;;;;;4134203;28;20111;-65
2022/05/19 09:42:59;;;;;;;5.25;3.40;;;29.40;99.90;;;;;;4136584;28;20408;-65
2022/05/19 09:45:07;;;;;;;4.72;2.55;;;29.30;99.90;;;;;;4138603;28;20045;-65
2022/05/19 09:47:27;;;;;;;4.60;2.40;;;29.30;99.90;;;;;;4139493;28;20073;-66
2022/05/19 09:49:34;;;;;;;6.85;2.53;;;29.40;99.90;;;;;;4135308;28;20052;-65
2022/05/19 09:51:43;;;;;;;4.00;2.20;;;29.30;99.90;;;;;;4142510;28;20057;-65
2022/05/19 09:53:49;;;;;;;5.57;2.38;;;29.30;99.90;;;;;;4144891;28;20049;-64
2022/05/19 09:55:58;;;;;;;6.55;2.90;;;29.30;99.90;;;;;;4140805;28;20050;-64
2022/05/19 09:58:06;;;;;;;4.30;2.50;;;29.30;99.90;;;;;;4139318;28;20140;-64
2022/05/19 10:00:32;;;;;;;8.98;2.85;;;29.30;99.90;;;;;;4143323;28;20085;-65
2022/05/19 10:02:45;;;;;;;4.22;2.70;;;29.30;99.90;;;;;;4138782;28;20132;-65
2022/05/19 10:05:25;;;;;;;5.47;3.08;;;29.30;99.90;;;;;;4148028;28;20111;-65
2022/05/19 10:07:42;;;;;;;5.43;3.05;;;29.20;99.90;;;;;;4143198;28;20050;-64
2022/05/19 10:09:47;;;;;;;6.60;3.60;;;29.30;99.90;;;;;;4150699;28;20041;-63
2022/05/19 10:11:54;;;;;;;6.78;3.50;;;29.20;99.90;;;;;;4142223;28;20112;-65
2022/05/19 10:14:10;;;;;;;4.95;3.42;;;29.20;99.90;;;;;;4131130;28;20048;-64
2022/05/19 10:16:42;;;;;;;8.50;3.57;;;29.30;99.90;;;;;;4147100;28;20748;-65
2022/05/19 10:19:01;;;;;;;7.95;3.80;;;29.30;99.90;;;;;;4148720;28;20057;-64
2022/05/19 10:21:08;;;;;;;6.63;3.40;;;29.20;99.90;;;;;;4146224;28;20046;-65
2022/05/19 10:23:46;;;;;;;4.68;3.17;;;29.20;99.90;;;;;;4145937;28;20250;-64
2022/05/19 10:26:15;;;;;;;6.43;3.20;;;29.30;99.90;;;;;;4148812;28;20060;-65
2022/05/19 10:31:07;;;;;;;5.72;3.10;;;29.20;99.90;;;;;;4146651;28;20093;-65
2022/05/19 10:33:32;;;;;;;4.80;2.72;;;29.30;99.90;;;;;;4140835;28;20078;-65
2022/05/19 10:36:09;;;;;;;5.72;2.80;;;29.30;99.90;;;;;;4154677;28;20151;-64
2022/05/19 10:38:28;;;;;;;6.88;2.80;;;29.30;99.90;;;;;;4137496;28;20487;-65
2022/05/19 10:40:45;;;;;;;5.18;2.60;;;29.20;99.90;;;;;;4146807;28;20720;-65
2022/05/19 10:43:00;;;;;;;8.27;3.60;;;29.20;99.90;;;;;;4140914;28;20053;-65
2022/05/19 10:45:22;;;;;;;5.32;2.80;;;29.20;99.90;;;;;;4138420;28;20050;-65
2022/05/19 10:47:38;;;;;;;5.65;3.10;;;29.20;99.90;;;;;;4139650;28;20205;-65
2022/05/19 10:49:58;;;;;;;5.75;3.20;;;29.20;99.90;;;;;;4141172;28;20102;-66
2022/05/19 10:52:16;;;;;;;7.82;3.13;;;29.10;99.90;;;;;;4123227;28;20088;-67
2022/05/19 10:54:45;;;;;;;5.05;3.13;;;29.20;99.90;;;;;;4138216;28;20592;-67
2022/05/19 10:56:59;;;;;;;4.68;3.22;;;29.20;99.90;;;;;;4135133;28;20049;-67
2022/05/19 10:59:16;;;;;;;6.68;3.25;;;29.10;99.90;;;;;;4139360;28;20050;-66
2022/05/19 11:01:28;;;;;;;6.03;3.20;;;29.10;99.90;;;;;;4140163;28;20160;-68
2022/05/19 11:03:52;;;;;;;5.60;3.20;;;29.10;99.90;;;;;;4137896;28;20119;-66
2022/05/19 11:06:11;;;;;;;7.38;3.80;;;29.10;99.90;;;;;;4138820;28;21035;-67
2022/05/19 11:08:40;;;;;;;5.30;2.97;;;29.00;99.90;;;;;;4139842;28;20854;-67
2022/05/19 11:11:08;;;;;;;5.18;3.40;;;29.00;99.90;;;;;;4154455;28;20467;-68
2022/05/19 11:13:37;;;;;;;6.72;4.18;;;29.00;99.90;;;;;;4123700;28;20050;-67
2022/05/19 11:16:10;;;;;;;8.35;5.55;;;28.90;99.90;;;;;;4138092;28;20173;-66
2022/05/19 11:18:30;;;;;;;8.38;5.43;;;28.90;99.90;;;;;;4137420;28;20181;-66
2022/05/19 11:20:43;;;;;;;9.32;4.82;;;28.90;99.90;;;;;;4139641;28;20397;-65
2022/05/19 11:22:54;;;;;;;8.18;4.75;;;28.90;99.90;;;;;;4137362;28;20064;-67
2022/05/19 11:27:20;;;;;;;5.82;3.53;;;28.90;99.90;;;;;;4138853;28;20114;-66
2022/05/19 11:29:42;;;;;;;4.25;3.50;;;28.90;99.90;;;;;;4107018;28;20391;-67
2022/05/19 11:32:03;;;;;;;5.63;3.53;;;28.90;99.90;;;;;;4136667;28;20100;-66
2022/05/19 11:34:27;;;;;;;5.55;3.20;;;28.80;99.90;;;;;;4138000;28;20061;-67
2022/05/19 11:36:46;;;;;;;5.05;3.65;;;28.80;99.90;;;;;;4122820;28;20097;-65